Time;durP1;ratioP1;P1;durP2;ratioP2;P2;SDS_P1;SDS_P2;PMS_P1;PMS_P2;Temp;Humidity;BMP_temperature;BMP_pressure;BME280_temperature;BME280_humidity;BME280_pressure;Samples;Min_cycle;Max_cycle;Signal;HPM_P1;HPM_P2
2022/01/05 00:02:06;;;;;;;97.72;38.15;;;12.00;99.90;;;;;;5041379;28;20045;-76
2022/01/05 00:04:31;;;;;;;85.80;39.80;;;12.00;99.90;;;;;;5043884;28;20652;-76
2022/01/05 00:06:57;;;;;;;86.70;40.38;;;12.00;99.90;;;;;;5044869;28;20450;-75
2022/01/05 00:09:23;;;;;;;97.22;44.92;;;12.00;99.90;;;;;;5044776;28;20013;-75
2022/01/05 00:11:49;;;;;;;102.03;47.45;;;12.00;99.90;;;;;;5044416;28;20106;-76
2022/01/05 00:14:14;;;;;;;94.18;46.47;;;12.00;99.90;;;;;;5044098;28;20423;-75
2022/01/05 00:16:40;;;;;;;77.50;41.58;;;12.00;99.90;;;;;;5045200;28;20434;-75
2022/01/05 00:19:06;;;;;;;76.80;41.90;;;12.00;99.90;;;;;;5049723;28;20033;-75
2022/01/05 00:21:32;;;;;;;74.65;41.65;;;12.00;99.90;;;;;;5047967;28;20067;-75
2022/01/05 00:23:58;;;;;;;75.63;40.65;;;12.00;99.90;;;;;;5048006;28;20029;-75
2022/01/05 00:26:25;;;;;;;85.55;38.67;;;12.00;99.90;;;;;;5047886;28;20082;-75
2022/01/05 00:28:51;;;;;;;81.68;37.80;;;12.00;99.90;;;;;;5047018;28;20041;-75
2022/01/05 00:31:16;;;;;;;82.65;34.00;;;12.00;99.90;;;;;;5055477;28;20449;-75
2022/01/05 00:33:42;;;;;;;69.90;31.67;;;12.00;99.90;;;;;;5041475;28;20036;-75
2022/01/05 00:36:08;;;;;;;74.07;33.65;;;12.00;99.90;;;;;;5046854;28;20032;-75
2022/01/05 00:38:34;;;;;;;69.63;33.67;;;11.90;99.90;;;;;;5047391;28;20021;-75
2022/01/05 00:41:00;;;;;;;88.88;51.95;;;11.90;99.90;;;;;;5047395;28;20117;-75
2022/01/05 00:43:27;;;;;;;97.07;41.22;;;11.90;99.90;;;;;;5050051;28;20033;-75
2022/01/05 00:45:53;;;;;;;74.65;35.17;;;11.90;99.90;;;;;;5047216;28;20495;-76
2022/01/05 00:48:19;;;;;;;73.03;34.65;;;11.90;99.90;;;;;;5047574;28;20075;-75
2022/01/05 00:50:45;;;;;;;56.28;26.33;;;11.80;99.90;;;;;;5046794;28;20040;-75
2022/01/05 00:53:10;;;;;;;37.08;16.05;;;11.80;99.90;;;;;;5046965;28;20045;-76
2022/01/05 00:55:37;;;;;;;31.35;12.93;;;11.80;99.90;;;;;;5048885;28;20079;-75
2022/01/05 00:58:03;;;;;;;18.23;8.70;;;11.70;99.90;;;;;;5049432;28;20028;-75
2022/01/05 01:00:28;;;;;;;18.08;7.35;;;11.80;99.90;;;;;;5049951;28;20107;-76
2022/01/05 01:02:54;;;;;;;16.55;6.15;;;11.80;99.90;;;;;;5049510;28;20124;-75
2022/01/05 01:05:20;;;;;;;10.82;4.15;;;11.80;99.90;;;;;;5047596;28;20040;-75
2022/01/05 01:07:46;;;;;;;9.02;3.80;;;11.80;99.90;;;;;;5052306;28;20055;-75
2022/01/05 01:10:13;;;;;;;9.60;2.53;;;11.70;99.90;;;;;;5060603;28;20040;-75
2022/01/05 01:12:39;;;;;;;4.45;2.05;;;11.80;99.90;;;;;;5052108;28;20020;-75
2022/01/05 01:15:07;;;;;;;3.88;1.58;;;11.80;99.90;;;;;;5053181;28;20551;-75
2022/01/05 01:17:33;;;;;;;4.75;1.40;;;11.80;99.90;;;;;;5052104;28;20063;-75
2022/01/05 01:19:59;;;;;;;1.77;0.95;;;11.70;99.90;;;;;;5052167;28;20063;-75
2022/01/05 01:22:27;;;;;;;2.35;1.05;;;11.70;99.90;;;;;;5052194;28;20045;-75
2022/01/05 01:24:53;;;;;;;2.28;0.57;;;11.80;99.90;;;;;;5052147;28;20029;-75
2022/01/05 01:27:19;;;;;;;2.25;0.63;;;11.70;99.90;;;;;;5052775;28;20021;-75
2022/01/05 01:29:45;;;;;;;0.82;0.50;;;11.70;99.90;;;;;;5050415;28;20065;-75
2022/01/05 01:32:11;;;;;;;0.50;0.50;;;11.70;99.90;;;;;;5051078;28;20036;-74
2022/01/05 01:34:36;;;;;;;0.65;0.52;;;11.70;99.90;;;;;;5048259;28;20016;-75
2022/01/05 01:37:02;;;;;;;0.95;0.70;;;11.70;99.90;;;;;;5049838;28;20025;-75
2022/01/05 01:39:28;;;;;;;3.25;1.10;;;11.70;99.90;;;;;;5052281;28;20024;-76
2022/01/05 01:41:54;;;;;;;0.73;0.60;;;11.70;99.90;;;;;;5051054;28;20112;-75
2022/01/05 01:44:19;;;;;;;1.17;0.60;;;11.70;99.90;;;;;;5049214;28;20149;-75
2022/01/05 01:46:45;;;;;;;0.60;0.60;;;11.70;99.90;;;;;;5049328;28;20032;-75
2022/01/05 01:49:11;;;;;;;0.50;0.50;;;11.70;99.90;;;;;;5049397;28;20480;-75
2022/01/05 01:51:36;;;;;;;1.27;0.60;;;11.70;99.90;;;;;;5051494;28;20052;-75
2022/01/05 01:54:04;;;;;;;2.28;0.60;;;11.70;99.90;;;;;;5049905;28;20453;-75
2022/01/05 01:56:33;;;;;;;0.68;0.50;;;11.70;99.90;;;;;;5049188;28;20024;-75
2022/01/05 01:59:00;;;;;;;1.13;0.70;;;11.60;99.90;;;;;;5049213;28;20392;-75
2022/01/05 02:01:26;;;;;;;0.88;0.70;;;11.60;99.90;;;;;;5048874;28;20024;-75
2022/01/05 02:03:52;;;;;;;0.95;0.60;;;11.60;99.90;;;;;;5049904;28;20040;-75
2022/01/05 02:06:17;;;;;;;0.60;0.60;;;11.60;99.90;;;;;;5051380;28;20398;-75
2022/01/05 02:08:43;;;;;;;0.50;0.50;;;11.60;99.90;;;;;;5049009;28;20028;-74
2022/01/05 02:11:11;;;;;;;0.93;0.60;;;11.60;99.90;;;;;;5048871;28;20104;-75
2022/01/05 02:13:37;;;;;;;0.75;0.60;;;11.50;99.90;;;;;;5048933;28;20139;-75
2022/01/05 02:16:04;;;;;;;1.13;0.63;;;11.50;99.90;;;;;;5048718;28;20120;-75
2022/01/05 02:20:59;;;;;;;0.68;0.50;;;11.50;99.90;;;;;;5049101;28;20025;-75
2022/01/05 02:23:25;;;;;;;0.57;0.57;;;11.40;99.90;;;;;;5050960;28;20531;-75
2022/01/05 02:25:51;;;;;;;0.60;0.60;;;11.40;99.90;;;;;;5054126;28;20530;-75
2022/01/05 02:28:17;;;;;;;0.60;0.60;;;11.30;99.90;;;;;;5048474;28;20041;-75
2022/01/05 02:30:43;;;;;;;0.60;0.60;;;11.40;99.90;;;;;;5050717;28;20391;-75
2022/01/05 02:33:09;;;;;;;0.47;0.40;;;11.40;99.90;;;;;;5050082;28;20021;-75
2022/01/05 02:35:35;;;;;;;0.50;0.50;;;11.30;99.90;;;;;;5048235;28;20075;-75
2022/01/05 02:38:01;;;;;;;1.50;0.57;;;11.30;99.90;;;;;;5047979;28;20029;-75
2022/01/05 02:40:27;;;;;;;0.60;0.60;;;11.30;99.90;;;;;;5048653;28;20024;-76
2022/01/05 02:42:55;;;;;;;0.65;0.60;;;11.30;99.90;;;;;;5047858;28;20033;-75
2022/01/05 02:45:21;;;;;;;2.60;0.80;;;11.30;99.90;;;;;;5050912;28;20028;-75
2022/01/05 02:47:48;;;;;;;1.83;0.75;;;11.30;99.90;;;;;;5048118;28;20033;-75
2022/01/05 02:50:14;;;;;;;2.53;1.00;;;11.20;99.90;;;;;;5048472;28;20024;-75
2022/01/05 02:52:41;;;;;;;1.98;1.10;;;11.30;99.90;;;;;;5047373;28;20045;-75
2022/01/05 02:55:08;;;;;;;2.83;1.30;;;11.30;99.90;;;;;;5047506;28;20033;-75
2022/01/05 02:57:34;;;;;;;2.33;1.45;;;11.20;99.90;;;;;;5049962;28;20028;-75
2022/01/05 03:00:00;;;;;;;4.18;1.27;;;11.20;99.90;;;;;;5046666;28;20024;-75
2022/01/05 03:02:26;;;;;;;3.28;1.50;;;11.20;99.90;;;;;;5051566;28;20518;-75
2022/01/05 03:04:51;;;;;;;3.38;1.50;;;11.20;99.90;;;;;;5047945;28;20033;-74
2022/01/05 03:07:17;;;;;;;3.53;1.70;;;11.20;99.90;;;;;;5046840;28;20491;-75
2022/01/05 03:09:43;;;;;;;4.93;1.80;;;11.20;99.90;;;;;;5049492;28;20032;-75
2022/01/05 03:12:10;;;;;;;3.78;1.80;;;11.20;99.90;;;;;;5048455;28;20100;-74
2022/01/05 03:14:36;;;;;;;3.53;1.75;;;11.20;99.90;;;;;;5046715;28;20025;-75
2022/01/05 03:17:02;;;;;;;3.60;1.73;;;11.10;99.90;;;;;;5048476;28;20055;-74
2022/01/05 03:19:28;;;;;;;4.40;1.98;;;11.20;99.90;;;;;;5047338;28;20405;-75
2022/01/05 03:21:54;;;;;;;4.00;1.88;;;11.20;99.90;;;;;;5047398;28;20042;-75
2022/01/05 03:24:20;;;;;;;5.70;1.80;;;11.10;99.90;;;;;;5049798;28;20099;-75
2022/01/05 03:26:45;;;;;;;4.30;1.77;;;11.10;99.90;;;;;;5048263;28;20041;-75
2022/01/05 03:29:11;;;;;;;4.50;2.10;;;11.10;99.90;;;;;;5048631;28;20160;-75
2022/01/05 03:31:37;;;;;;;3.67;1.70;;;11.10;99.90;;;;;;5046764;28;20391;-74
2022/01/05 03:34:04;;;;;;;3.92;1.90;;;11.10;99.90;;;;;;5046813;28;20025;-75
2022/01/05 03:36:30;;;;;;;3.80;1.70;;;11.00;99.90;;;;;;5049479;28;20092;-75
2022/01/05 03:38:56;;;;;;;5.15;1.98;;;11.00;99.90;;;;;;5052613;28;20104;-75
2022/01/05 03:41:21;;;;;;;3.95;1.70;;;11.00;99.90;;;;;;5053368;28;20040;-75
2022/01/05 03:43:47;;;;;;;4.75;1.85;;;11.00;99.90;;;;;;5050360;28;20025;-75
2022/01/05 03:46:13;;;;;;;6.63;4.38;;;11.00;99.90;;;;;;5050320;28;20083;-75
2022/01/05 03:48:39;;;;;;;11.10;10.00;;;10.90;99.90;;;;;;5052368;28;20496;-74
2022/01/05 03:51:05;;;;;;;11.68;10.57;;;10.90;99.90;;;;;;5050913;28;20017;-75
2022/01/05 03:53:31;;;;;;;11.98;9.85;;;10.90;99.90;;;;;;5006940;28;1272007;-75
2022/01/05 03:55:57;;;;;;;10.82;7.97;;;10.90;99.90;;;;;;5051554;28;20498;-75
2022/01/05 03:58:22;;;;;;;4.90;2.45;;;10.80;99.90;;;;;;5051217;28;20083;-74
2022/01/05 04:00:50;;;;;;;3.58;1.85;;;10.70;99.90;;;;;;5052928;28;20084;-74
2022/01/05 04:03:18;;;;;;;3.75;1.80;;;10.60;99.90;;;;;;5053862;28;20062;-75
2022/01/05 04:05:43;;;;;;;3.90;1.60;;;10.60;99.90;;;;;;5051124;28;20017;-75
2022/01/05 04:08:09;;;;;;;3.38;1.55;;;10.50;99.90;;;;;;5052601;28;20403;-74
2022/01/05 04:10:35;;;;;;;2.88;1.20;;;10.40;99.90;;;;;;5051283;28;20025;-75
2022/01/05 04:13:01;;;;;;;2.67;1.20;;;10.30;99.90;;;;;;5051779;28;20021;-75
2022/01/05 04:15:27;;;;;;;2.38;1.40;;;10.20;99.90;;;;;;5054435;28;20044;-74
2022/01/05 04:17:53;;;;;;;2.53;1.20;;;10.10;99.90;;;;;;5052072;28;20013;-74
2022/01/05 04:20:19;;;;;;;2.30;1.10;;;10.10;99.90;;;;;;5051342;28;20395;-75
2022/01/05 04:22:45;;;;;;;1.58;1.00;;;10.10;99.90;;;;;;5050781;28;20035;-74
2022/01/05 04:25:11;;;;;;;2.58;1.30;;;10.00;99.90;;;;;;5051503;28;20025;-74
2022/01/05 04:27:37;;;;;;;3.53;1.50;;;9.90;99.90;;;;;;5053062;28;20095;-74
2022/01/05 04:30:06;;;;;;;3.33;2.20;;;9.80;99.90;;;;;;5051750;28;20025;-75
2022/01/05 04:32:32;;;;;;;6.32;5.65;;;9.80;99.90;;;;;;5050956;28;20025;-74
2022/01/05 04:34:58;;;;;;;8.80;8.00;;;9.80;99.90;;;;;;5050393;28;20074;-75
2022/01/05 04:37:23;;;;;;;8.27;5.55;;;9.80;99.90;;;;;;5050814;28;20517;-75
2022/01/05 04:39:50;;;;;;;5.65;4.97;;;9.70;99.90;;;;;;5052018;28;22385;-74
2022/01/05 04:42:16;;;;;;;4.93;4.10;;;9.60;99.90;;;;;;5052733;28;20037;-75
2022/01/05 04:44:41;;;;;;;7.20;5.95;;;9.60;99.90;;;;;;5050896;28;20095;-74
2022/01/05 04:47:08;;;;;;;10.60;9.70;;;9.60;99.90;;;;;;5050354;28;20033;-75
2022/01/05 04:49:34;;;;;;;11.07;10.05;;;9.50;99.90;;;;;;5050006;28;20031;-74
2022/01/05 04:52:00;;;;;;;11.40;10.23;;;9.50;99.90;;;;;;5050260;28;20033;-74
2022/01/05 04:54:25;;;;;;;12.50;11.43;;;9.40;99.90;;;;;;5053921;28;20079;-74
2022/01/05 04:56:51;;;;;;;8.80;6.90;;;9.40;99.90;;;;;;5050381;28;20028;-75
2022/01/05 04:59:17;;;;;;;7.35;5.47;;;9.40;99.90;;;;;;5050502;28;20112;-74
2022/01/05 05:01:42;;;;;;;9.90;7.78;;;9.40;99.90;;;;;;5050277;28;20033;-75
2022/01/05 05:04:08;;;;;;;9.68;8.88;;;9.30;99.90;;;;;;5050148;28;20038;-74
2022/01/05 05:06:34;;;;;;;11.82;10.82;;;9.30;99.90;;;;;;5052561;28;20024;-74
2022/01/05 05:09:00;;;;;;;14.43;13.10;;;9.30;99.90;;;;;;5051395;28;20500;-75
2022/01/05 05:11:26;;;;;;;7.75;7.15;;;9.20;99.90;;;;;;5050230;28;20113;-74
2022/01/05 05:13:51;;;;;;;8.10;6.43;;;9.20;99.90;;;;;;5052144;28;20043;-74
2022/01/05 05:16:17;;;;;;;7.40;5.97;;;9.10;99.90;;;;;;5050401;28;20484;-74
2022/01/05 05:18:43;;;;;;;2.47;1.95;;;9.10;99.90;;;;;;5051880;28;20475;-74
2022/01/05 05:21:08;;;;;;;1.52;1.10;;;9.10;99.90;;;;;;5053450;28;20458;-75
2022/01/05 05:23:34;;;;;;;1.52;0.90;;;9.10;99.90;;;;;;5051854;28;20118;-77
2022/01/05 05:26:00;;;;;;;4.32;1.50;;;9.00;99.90;;;;;;5051845;28;20021;-74
2022/01/05 05:28:26;;;;;;;6.07;1.50;;;9.00;99.90;;;;;;5050911;28;20025;-74
2022/01/05 05:30:51;;;;;;;3.70;1.33;;;9.00;99.90;;;;;;5051186;28;20055;-74
2022/01/05 05:33:17;;;;;;;4.32;1.80;;;9.00;99.90;;;;;;5058972;28;20025;-74
2022/01/05 05:35:43;;;;;;;2.38;1.10;;;9.00;99.90;;;;;;5051590;28;20112;-74
2022/01/05 05:38:11;;;;;;;5.25;2.00;;;8.90;99.90;;;;;;5050089;28;20028;-77
2022/01/05 05:40:38;;;;;;;5.40;2.35;;;8.90;99.90;;;;;;5049560;28;20045;-74
2022/01/05 05:43:04;;;;;;;5.72;2.25;;;8.80;99.90;;;;;;5050313;28;20431;-74
2022/01/05 05:45:29;;;;;;;4.82;1.92;;;8.90;99.90;;;;;;5052506;28;20021;-74
2022/01/05 05:47:55;;;;;;;5.05;2.47;;;8.80;99.90;;;;;;5049493;28;20029;-74
2022/01/05 05:50:21;;;;;;;3.15;2.00;;;8.80;99.90;;;;;;5049977;28;20400;-74
2022/01/05 05:52:47;;;;;;;4.70;2.20;;;8.70;99.90;;;;;;5049227;28;20087;-73
2022/01/05 05:55:12;;;;;;;5.38;2.00;;;8.70;99.90;;;;;;5049097;28;20030;-72
2022/01/05 05:57:38;;;;;;;2.72;1.27;;;8.70;99.90;;;;;;5051779;28;20452;-72
2022/01/05 06:00:06;;;;;;;2.72;1.05;;;8.70;99.90;;;;;;5049784;28;20059;-76
2022/01/05 06:02:32;;;;;;;2.05;1.40;;;8.70;99.90;;;;;;5050036;28;20048;-72
2022/01/05 06:04:58;;;;;;;5.82;3.42;;;8.70;99.90;;;;;;5051693;28;20048;-73
2022/01/05 06:07:24;;;;;;;6.60;3.75;;;8.70;99.90;;;;;;5051445;28;20515;-73
2022/01/05 06:09:49;;;;;;;5.88;3.80;;;8.70;99.90;;;;;;5051054;28;20029;-75
2022/01/05 06:12:15;;;;;;;7.47;3.35;;;8.70;99.90;;;;;;5052425;28;20029;-74
2022/01/05 06:14:42;;;;;;;6.20;3.03;;;8.70;99.90;;;;;;5051310;28;20047;-74
2022/01/05 06:17:07;;;;;;;4.78;2.45;;;8.80;99.90;;;;;;5050694;28;20503;-74
2022/01/05 06:19:33;;;;;;;5.63;2.70;;;8.80;99.90;;;;;;5051311;28;20083;-74
2022/01/05 06:21:59;;;;;;;5.50;2.40;;;8.90;99.90;;;;;;5051258;28;20037;-74
2022/01/05 06:24:25;;;;;;;5.88;2.80;;;8.90;99.90;;;;;;5052199;28;20526;-74
2022/01/05 06:26:54;;;;;;;5.93;2.50;;;8.90;99.90;;;;;;5045995;28;20029;-74
2022/01/05 06:29:21;;;;;;;6.85;3.75;;;8.90;99.90;;;;;;5037673;28;20040;-74
2022/01/05 06:31:47;;;;;;;6.95;3.85;;;8.90;99.90;;;;;;5047363;28;20021;-74
2022/01/05 06:34:13;;;;;;;5.75;2.90;;;8.90;99.90;;;;;;5050688;28;20518;-73
2022/01/05 06:36:39;;;;;;;4.13;2.30;;;8.80;99.90;;;;;;5051168;28;20575;-74
2022/01/05 06:39:05;;;;;;;4.18;2.20;;;8.80;99.90;;;;;;5051484;28;20091;-73
2022/01/05 06:41:31;;;;;;;2.72;1.80;;;8.80;99.90;;;;;;5050324;28;20499;-74
2022/01/05 06:43:57;;;;;;;4.05;1.92;;;8.80;99.90;;;;;;5050668;28;20053;-73
2022/01/05 06:46:22;;;;;;;4.57;1.70;;;8.80;99.90;;;;;;5050553;28;20025;-73
2022/01/05 06:48:48;;;;;;;3.42;1.90;;;8.70;99.90;;;;;;5050444;28;20064;-73
2022/01/05 06:51:14;;;;;;;3.83;2.40;;;8.70;99.90;;;;;;5051478;28;20114;-73
2022/01/05 06:53:40;;;;;;;7.43;3.47;;;8.60;99.90;;;;;;5050213;28;20072;-73
2022/01/05 06:56:06;;;;;;;6.40;2.10;;;8.50;99.90;;;;;;5050259;28;20037;-73
2022/01/05 06:58:32;;;;;;;2.90;1.77;;;8.50;99.90;;;;;;5049490;28;20027;-74
2022/01/05 07:00:58;;;;;;;2.90;1.60;;;8.50;99.90;;;;;;5048730;28;20112;-73
2022/01/05 07:03:23;;;;;;;4.15;1.40;;;8.60;99.90;;;;;;5049617;28;20108;-73
2022/01/05 07:05:49;;;;;;;3.38;1.27;;;8.70;99.90;;;;;;5048204;28;20029;-73
2022/01/05 07:08:15;;;;;;;3.03;1.30;;;8.80;99.90;;;;;;5050311;28;20048;-73
2022/01/05 07:10:40;;;;;;;2.15;1.20;;;8.80;99.90;;;;;;5049830;28;20036;-73
2022/01/05 07:13:07;;;;;;;3.75;1.50;;;8.80;99.90;;;;;;5049432;28;20124;-73
2022/01/05 07:15:33;;;;;;;3.42;1.20;;;8.80;99.90;;;;;;5051047;28;20017;-73
2022/01/05 07:17:59;;;;;;;3.30;1.45;;;8.70;99.90;;;;;;5050362;28;20024;-73
2022/01/05 07:20:24;;;;;;;2.75;1.20;;;8.70;99.90;;;;;;5049629;28;20032;-73
2022/01/05 07:22:50;;;;;;;3.97;1.50;;;8.70;99.90;;;;;;5049616;28;20025;-74
2022/01/05 07:25:16;;;;;;;4.35;1.75;;;8.70;99.90;;;;;;5049441;28;20036;-73
2022/01/05 07:27:43;;;;;;;12.18;5.03;;;8.60;99.90;;;;;;5055419;28;20107;-73
2022/01/05 07:30:09;;;;;;;12.52;4.63;;;8.60;99.90;;;;;;5050671;28;20112;-73
2022/01/05 07:32:35;;;;;;;10.15;4.07;;;8.60;99.90;;;;;;5049251;28;20052;-73
2022/01/05 07:35:01;;;;;;;7.97;2.97;;;8.50;99.90;;;;;;5049031;28;20028;-73
2022/01/05 07:37:27;;;;;;;10.18;3.78;;;8.50;99.90;;;;;;5049625;28;20037;-73
2022/01/05 07:39:52;;;;;;;6.00;2.92;;;8.40;99.90;;;;;;5049523;28;20055;-73
2022/01/05 07:42:18;;;;;;;7.47;3.47;;;8.50;99.90;;;;;;5050688;28;20055;-73
2022/01/05 07:44:44;;;;;;;11.30;3.30;;;8.50;99.90;;;;;;5048770;28;20052;-74
2022/01/05 07:47:10;;;;;;;11.68;5.00;;;8.50;99.90;;;;;;5048814;28;20037;-73
2022/01/05 07:49:37;;;;;;;9.13;4.63;;;8.50;99.90;;;;;;5049205;28;20039;-73
2022/01/05 07:52:04;;;;;;;5.35;3.63;;;8.40;99.90;;;;;;5048467;28;20434;-74
2022/01/05 07:54:32;;;;;;;6.13;3.22;;;8.40;99.90;;;;;;5046736;28;20387;-73
2022/01/05 07:56:58;;;;;;;7.45;2.95;;;8.40;99.90;;;;;;5045201;28;20483;-73
2022/01/05 07:59:24;;;;;;;7.68;3.20;;;8.30;99.90;;;;;;5045257;28;20522;-73
2022/01/05 08:01:50;;;;;;;6.20;2.00;;;8.30;99.90;;;;;;5044488;28;20475;-73
2022/01/05 08:04:16;;;;;;;4.43;1.90;;;8.40;99.90;;;;;;5043425;28;20029;-74
2022/01/05 08:06:42;;;;;;;5.88;1.80;;;8.50;99.90;;;;;;5046276;28;20059;-73
2022/01/05 08:09:08;;;;;;;3.72;1.70;;;8.60;99.90;;;;;;5045044;28;20033;-73
2022/01/05 08:11:34;;;;;;;5.03;1.90;;;8.60;99.90;;;;;;5043706;28;20025;-73
2022/01/05 08:14:00;;;;;;;5.20;1.48;;;8.70;99.90;;;;;;5043424;28;20567;-74
2022/01/05 08:16:26;;;;;;;7.68;1.80;;;8.90;99.90;;;;;;5045775;28;20025;-73
2022/01/05 08:18:52;;;;;;;5.32;1.65;;;9.00;99.90;;;;;;5045025;28;20071;-73
2022/01/05 08:21:18;;;;;;;3.58;2.10;;;9.00;99.90;;;;;;5045088;28;20021;-75
2022/01/05 08:23:44;;;;;;;5.30;1.52;;;9.20;99.90;;;;;;5043658;28;20079;-75
2022/01/05 08:26:10;;;;;;;4.90;1.40;;;9.40;97.80;;;;;;5043649;28;20043;-76
2022/01/05 08:28:36;;;;;;;4.07;1.60;;;9.60;96.40;;;;;;5047884;28;20537;-75
2022/01/05 08:31:02;;;;;;;2.97;1.42;;;9.90;94.50;;;;;;5045155;28;20424;-77
2022/01/05 08:33:28;;;;;;;2.15;1.30;;;10.10;93.80;;;;;;5048315;28;20131;-77
2022/01/05 08:35:55;;;;;;;2.60;1.35;;;10.90;91.40;;;;;;5045874;28;20378;-77
2022/01/05 08:38:21;;;;;;;2.80;1.33;;;13.30;83.60;;;;;;5045128;28;20103;-76
2022/01/05 08:40:49;;;;;;;3.58;1.30;;;15.90;72.60;;;;;;5045293;28;20035;-76
2022/01/05 08:43:15;;;;;;;3.65;1.10;;;17.40;61.50;;;;;;5044570;28;20041;-74
2022/01/05 08:45:42;;;;;;;3.03;1.10;;;18.40;56.90;;;;;;5048142;28;20021;-75
2022/01/05 08:48:10;;;;;;;3.35;1.25;;;19.20;54.40;;;;;;5046264;28;20506;-75
2022/01/05 08:50:36;;;;;;;3.05;1.30;;;19.90;52.40;;;;;;5044722;28;20052;-75
2022/01/05 08:53:03;;;;;;;2.45;1.00;;;20.20;50.20;;;;;;5046525;28;20489;-75
2022/01/05 08:55:35;;;;;;;2.53;1.15;;;20.30;47.40;;;;;;5044208;28;20111;-75
2022/01/05 08:58:01;;;;;;;3.33;1.20;;;20.50;46.30;;;;;;5042150;28;20041;-74
2022/01/05 09:00:27;;;;;;;1.55;0.98;;;20.80;45.30;;;;;;5044585;28;20050;-75
2022/01/05 09:02:53;;;;;;;1.52;1.10;;;21.20;44.70;;;;;;5043878;28;20040;-75
2022/01/05 09:05:19;;;;;;;1.95;1.02;;;21.10;43.20;;;;;;5046635;28;20029;-75
2022/01/05 09:07:45;;;;;;;1.70;1.02;;;21.50;43.40;;;;;;5043851;28;20449;-74
2022/01/05 09:10:11;;;;;;;2.00;0.82;;;21.50;43.00;;;;;;5045449;28;20069;-75
2022/01/05 09:12:36;;;;;;;1.35;0.73;;;21.00;42.20;;;;;;5048817;28;20036;-75
2022/01/05 09:15:04;;;;;;;1.45;0.70;;;18.30;44.60;;;;;;5048598;28;20348;-75
2022/01/05 09:17:30;;;;;;;1.08;0.70;;;16.40;47.50;;;;;;5042133;28;20028;-75
2022/01/05 09:19:55;;;;;;;3.60;0.70;;;15.40;50.50;;;;;;5045839;28;20021;-75
2022/01/05 09:22:22;;;;;;;2.85;0.70;;;14.80;51.40;;;;;;5054142;28;20098;-75
2022/01/05 09:24:49;;;;;;;2.22;0.70;;;14.40;52.00;;;;;;5047176;28;20440;-74
2022/01/05 09:27:16;;;;;;;1.27;0.80;;;14.10;52.90;;;;;;5047315;28;20434;-74
2022/01/05 09:29:42;;;;;;;2.35;0.80;;;14.00;54.00;;;;;;5046116;28;20029;-74
2022/01/05 09:32:08;;;;;;;4.60;1.08;;;13.90;54.00;;;;;;5044932;28;20112;-75
2022/01/05 09:34:38;;;;;;;2.10;0.90;;;13.90;54.10;;;;;;5046036;28;20512;-75
2022/01/05 09:37:14;;;;;;;3.40;0.88;;;13.80;54.60;;;;;;5046502;28;20017;-75
2022/01/05 09:42:25;;;;;;;1.95;1.00;;;13.90;54.60;;;;;;5052342;28;20044;-74
2022/01/05 09:44:52;;;;;;;1.88;0.82;;;13.80;54.40;;;;;;5048532;28;20021;-75
2022/01/05 09:47:44;;;;;;;3.35;0.82;;;13.80;54.50;;;;;;5049468;28;20040;-76
2022/01/05 09:50:12;;;;;;;3.63;1.05;;;13.80;54.90;;;;;;5049452;28;20055;-76
2022/01/05 09:52:45;;;;;;;2.03;0.90;;;13.70;54.10;;;;;;5048116;28;20049;-76
2022/01/05 09:55:12;;;;;;;3.70;0.98;;;13.70;54.60;;;;;;5048578;28;20040;-76
2022/01/05 09:57:43;;;;;;;1.65;0.80;;;13.60;54.90;;;;;;5051629;28;20025;-74
2022/01/05 10:00:12;;;;;;;2.42;1.00;;;13.70;54.80;;;;;;5051939;28;20033;-74
2022/01/05 10:02:42;;;;;;;2.38;0.85;;;13.70;55.90;;;;;;5048711;28;20033;-74
2022/01/05 10:05:12;;;;;;;2.00;0.88;;;13.80;54.10;;;;;;5048369;28;20499;-74
2022/01/05 10:07:39;;;;;;;3.22;1.10;;;13.80;54.60;;;;;;5040647;28;20495;-74
2022/01/05 10:10:05;;;;;;;1.27;0.85;;;13.80;54.40;;;;;;5048189;28;20032;-76
2022/01/05 10:12:32;;;;;;;2.92;0.90;;;13.70;54.10;;;;;;5051977;28;20032;-76
2022/01/05 10:14:57;;;;;;;2.13;0.90;;;13.70;54.30;;;;;;5049926;28;20022;-76
2022/01/05 10:17:26;;;;;;;6.38;1.48;;;13.90;53.90;;;;;;5048534;28;20032;-76
2022/01/05 10:20:07;;;;;;;6.05;1.48;;;13.90;54.30;;;;;;5049237;28;20029;-82
2022/01/05 10:22:45;;;;;;;4.35;1.30;;;14.00;53.20;;;;;;5047973;28;20056;-80
2022/01/05 10:25:23;;;;;;;2.95;1.08;;;13.90;53.10;;;;;;5045272;28;20021;-80
2022/01/05 10:28:01;;;;;;;3.70;1.00;;;13.80;52.80;;;;;;5050214;28;20103;-78
2022/01/05 10:30:40;;;;;;;6.63;1.08;;;13.90;53.20;;;;;;5050584;28;20124;-78
2022/01/05 10:33:07;;;;;;;1.67;1.00;;;13.90;54.30;;;;;;5051081;28;20477;-76
2022/01/05 10:35:34;;;;;;;1.65;0.82;;;13.90;53.90;;;;;;5050408;28;20044;-77
2022/01/05 10:38:07;;;;;;;1.75;0.80;;;13.90;53.10;;;;;;5053535;28;20103;-76
2022/01/05 10:40:34;;;;;;;3.25;0.90;;;13.80;51.30;;;;;;5047808;28;20481;-76
2022/01/05 10:43:10;;;;;;;1.42;0.70;;;13.80;52.30;;;;;;5042966;28;20558;-77
2022/01/05 10:45:51;;;;;;;2.90;0.85;;;13.70;51.70;;;;;;5050090;28;20068;-77
2022/01/05 10:48:24;;;;;;;3.53;1.00;;;13.70;51.50;;;;;;5049269;28;20029;-76
2022/01/05 10:51:03;;;;;;;2.72;0.93;;;13.70;52.30;;;;;;5047959;28;20033;-78
2022/01/05 10:53:29;;;;;;;3.42;0.90;;;13.80;51.50;;;;;;5047041;28;20072;-76
2022/01/05 10:55:54;;;;;;;3.25;1.10;;;13.90;51.30;;;;;;5047227;28;20052;-78
2022/01/05 10:58:20;;;;;;;2.90;1.10;;;13.80;51.00;;;;;;5047764;28;20558;-78
2022/01/05 11:00:50;;;;;;;0.93;0.77;;;13.80;50.40;;;;;;5049560;28;20119;-78
2022/01/05 11:03:30;;;;;;;2.35;0.95;;;13.70;51.00;;;;;;5050209;28;20498;-78
2022/01/05 11:05:59;;;;;;;2.80;1.10;;;13.80;51.50;;;;;;5047796;28;20458;-79
2022/01/05 11:08:25;;;;;;;3.95;1.05;;;13.90;52.20;;;;;;5047391;28;20025;-81
2022/01/05 11:10:50;;;;;;;3.88;1.48;;;13.90;51.30;;;;;;5047760;28;20120;-80
2022/01/05 11:13:16;;;;;;;2.67;1.20;;;13.90;51.80;;;;;;5051738;28;20498;-78
2022/01/05 11:15:42;;;;;;;4.55;1.80;;;13.80;51.30;;;;;;5049644;28;20021;-73
2022/01/05 11:18:13;;;;;;;50.03;4.63;;;13.90;50.80;;;;;;5048980;28;20062;-76
2022/01/05 11:20:49;;;;;;;3.15;1.00;;;13.90;51.90;;;;;;5047644;28;20052;-83
2022/01/05 11:23:17;;;;;;;3.65;1.20;;;13.80;52.20;;;;;;5046963;28;20045;-81
2022/01/05 11:25:46;;;;;;;2.15;0.90;;;13.90;53.00;;;;;;5047523;28;20021;-77
2022/01/05 11:28:14;;;;;;;2.50;0.90;;;13.90;52.00;;;;;;5047771;28;20030;-75
2022/01/05 11:30:41;;;;;;;2.65;1.15;;;14.00;52.00;;;;;;5050297;28;20106;-73
2022/01/05 11:33:07;;;;;;;3.30;1.20;;;13.90;51.10;;;;;;5048613;28;20459;-83
2022/01/05 11:35:33;;;;;;;2.70;1.10;;;13.90;51.20;;;;;;5048608;28;20025;-80
2022/01/05 11:38:00;;;;;;;3.85;1.20;;;14.00;50.10;;;;;;5047906;28;20094;-86
2022/01/05 11:40:26;;;;;;;4.57;1.35;;;14.10;50.80;;;;;;5047154;28;20017;-84
2022/01/05 11:43:02;;;;;;;2.78;1.10;;;14.20;50.10;;;;;;5048152;28;20123;-85
2022/01/05 11:45:47;;;;;;;3.70;1.10;;;14.20;49.70;;;;;;5047854;28;20086;-82
2022/01/05 11:48:26;;;;;;;4.00;1.13;;;14.20;49.90;;;;;;5048663;28;20029;-82
2022/01/05 11:50:58;;;;;;;4.25;1.60;;;14.30;49.80;;;;;;5050155;28;20059;-85
2022/01/05 11:53:45;;;;;;;3.20;1.20;;;14.20;49.30;;;;;;5050614;28;20055;-90
2022/01/05 11:56:14;;;;;;;3.65;1.00;;;14.30;49.30;;;;;;5041393;28;20033;-87
2022/01/05 11:59:35;;;;;;;5.32;1.20;;;14.40;49.90;;;;;;5047077;28;20025;-82
2022/01/05 12:02:15;;;;;;;2.83;1.10;;;14.50;49.20;;;;;;4964156;28;20141;-80
2022/01/05 12:04:53;;;;;;;3.90;1.10;;;14.60;48.40;;;;;;4970941;28;20050;-81
2022/01/05 12:07:57;;;;;;;3.92;1.10;;;14.60;48.60;;;;;;4971907;28;20031;-83
2022/01/05 12:10:23;;;;;;;2.17;0.88;;;14.60;48.40;;;;;;4915158;29;20036;-85
2022/01/05 12:13:04;;;;;;;3.55;1.05;;;14.60;48.90;;;;;;4914854;29;20382;-82
2022/01/05 12:15:56;;;;;;;3.58;1.20;;;14.60;46.90;;;;;;4912782;29;20087;-84
2022/01/05 12:18:27;;;;;;;9.02;3.60;;;14.50;47.50;;;;;;4914584;29;20036;-84
2022/01/05 12:20:54;;;;;;;3.90;1.30;;;14.80;47.40;;;;;;4911880;29;20041;-79
2022/01/05 12:23:25;;;;;;;6.20;1.50;;;15.00;46.40;;;;;;4897883;29;20047;-80
2022/01/05 12:28:31;;;;;;;4.35;1.40;;;15.20;45.80;;;;;;4911776;29;20025;-75
2022/01/05 12:30:57;;;;;;;4.00;1.30;;;15.50;45.90;;;;;;4915062;29;20456;-79
2022/01/05 12:33:23;;;;;;;3.88;1.52;;;16.00;45.10;;;;;;4911116;29;20025;-77
2022/01/05 12:36:01;;;;;;;4.57;1.50;;;17.40;43.10;;;;;;4911047;29;20122;-76
2022/01/05 12:38:39;;;;;;;5.05;1.20;;;19.50;41.50;;;;;;4983116;28;20405;-74
2022/01/05 12:41:24;;;;;;;3.58;1.25;;;21.50;38.20;;;;;;5014923;28;20040;-74
2022/01/05 12:43:52;;;;;;;3.45;1.40;;;22.30;36.60;;;;;;5050637;28;20430;-74
2022/01/05 12:46:34;;;;;;;7.13;1.42;;;22.40;36.10;;;;;;5051044;28;20029;-74
2022/01/05 12:49:03;;;;;;;4.93;1.38;;;21.80;35.40;;;;;;5046108;28;20236;-74
2022/01/05 12:51:58;;;;;;;4.82;1.33;;;20.80;36.10;;;;;;5040874;28;20036;-74
2022/01/05 12:54:29;;;;;;;5.55;1.55;;;19.60;36.80;;;;;;5024389;28;20427;-74
2022/01/05 12:57:03;;;;;;;4.50;1.50;;;19.60;37.80;;;;;;5037307;28;20033;-75
2022/01/05 12:59:29;;;;;;;5.00;1.40;;;20.80;37.70;;;;;;5037785;28;20053;-74